sensor_id;sensor_type;location;lat;lon;timestamp;pressure;altitude;pressure_sealevel;temperature;humidity
40872;BME280;26591;43.264;26.940;2023-02-16T00:09:31;100337.47;;;3.18;64.51
40872;BME280;26591;43.264;26.940;2023-02-16T00:24:33;100338.56;;;3.61;63.77
40872;BME280;26591;43.264;26.940;2023-02-16T01:06:10;100331.88;;;3.86;62.52
40872;BME280;26591;43.264;26.940;2023-02-16T01:08:56;100331.50;;;3.77;62.48
40872;BME280;26591;43.264;26.940;2023-02-16T01:11:50;100328.41;;;3.71;62.81
40872;BME280;26591;43.264;26.940;2023-02-16T01:14:16;100331.41;;;3.48;63.69
40872;BME280;26591;43.264;26.940;2023-02-16T01:16:41;100323.94;;;3.57;63.14
40872;BME280;26591;43.264;26.940;2023-02-16T01:19:09;100327.75;;;3.67;63.13
40872;BME280;26591;43.264;26.940;2023-02-16T01:21:35;100323.44;;;3.66;63.03
40872;BME280;26591;43.264;26.940;2023-02-16T01:24:01;100324.91;;;3.70;63.31
40872;BME280;26591;43.264;26.940;2023-02-16T01:26:29;100328.66;;;3.66;62.83
40872;BME280;26591;43.264;26.940;2023-02-16T01:28:56;100327.97;;;3.62;63.04
40872;BME280;26591;43.264;26.940;2023-02-16T01:31:22;100327.13;;;3.47;63.44
40872;BME280;26591;43.264;26.940;2023-02-16T01:33:47;100322.41;;;3.38;63.35
40872;BME280;26591;43.264;26.940;2023-02-16T01:36:36;100321.88;;;3.47;63.73
40872;BME280;26591;43.264;26.940;2023-02-16T01:39:02;100321.34;;;3.57;63.30
40872;BME280;26591;43.264;26.940;2023-02-16T01:46:43;100328.66;;;3.35;63.55
40872;BME280;26591;43.264;26.940;2023-02-16T01:49:15;100314.56;;;3.38;64.07
40872;BME280;26591;43.264;26.940;2023-02-16T01:51:56;100314.19;;;3.44;63.88
40872;BME280;26591;43.264;26.940;2023-02-16T01:54:49;100324.28;;;3.36;63.81
40872;BME280;26591;43.264;26.940;2023-02-16T02:00:09;100312.59;;;3.42;64.13
40872;BME280;26591;43.264;26.940;2023-02-16T02:02:51;100313.44;;;3.42;64.11
40872;BME280;26591;43.264;26.940;2023-02-16T02:05:22;100312.63;;;3.26;64.34
40872;BME280;26591;43.264;26.940;2023-02-16T02:15:57;100310.56;;;3.16;64.46
40872;BME280;26591;43.264;26.940;2023-02-16T02:18:23;100307.59;;;3.23;64.15
40872;BME280;26591;43.264;26.940;2023-02-16T02:29:59;100297.41;;;3.02;64.22
40872;BME280;26591;43.264;26.940;2023-02-16T02:39:03;100296.41;;;2.72;64.46
40872;BME280;26591;43.264;26.940;2023-02-16T02:42:00;100290.34;;;2.72;65.16
40872;BME280;26591;43.264;26.940;2023-02-16T02:47:46;100287.47;;;2.77;65.53
40872;BME280;26591;43.264;26.940;2023-02-16T02:56:59;100294.06;;;2.84;65.60
40872;BME280;26591;43.264;26.940;2023-02-16T02:59:50;100294.88;;;2.84;64.95
40872;BME280;26591;43.264;26.940;2023-02-16T03:02:38;100292.56;;;2.64;65.88
40872;BME280;26591;43.264;26.940;2023-02-16T03:05:59;100298.78;;;2.61;65.89
40872;BME280;26591;43.264;26.940;2023-02-16T03:08:40;100302.91;;;2.49;66.31
40872;BME280;26591;43.264;26.940;2023-02-16T03:11:28;100304.41;;;2.37;66.75
40872;BME280;26591;43.264;26.940;2023-02-16T03:14:18;100315.72;;;2.54;66.53
40872;BME280;26591;43.264;26.940;2023-02-16T03:16:52;100314.81;;;2.55;66.22
40872;BME280;26591;43.264;26.940;2023-02-16T03:19:39;100307.53;;;2.44;66.58
40872;BME280;26591;43.264;26.940;2023-02-16T03:22:25;100315.78;;;2.52;65.91
40872;BME280;26591;43.264;26.940;2023-02-16T03:25:09;100315.78;;;2.52;66.43
40872;BME280;26591;43.264;26.940;2023-02-16T03:27:54;100309.88;;;2.33;66.52
40872;BME280;26591;43.264;26.940;2023-02-16T03:33:14;100320.59;;;2.44;66.78
40872;BME280;26591;43.264;26.940;2023-02-16T03:35:41;100315.53;;;2.41;66.75
40872;BME280;26591;43.264;26.940;2023-02-16T03:38:07;100309.81;;;2.50;66.44
40872;BME280;26591;43.264;26.940;2023-02-16T03:40:51;100307.63;;;2.58;65.70
40872;BME280;26591;43.264;26.940;2023-02-16T03:43:17;100310.16;;;2.60;66.29
40872;BME280;26591;43.264;26.940;2023-02-16T03:45:44;100311.72;;;2.31;66.25
40872;BME280;26591;43.264;26.940;2023-02-16T03:48:10;100317.72;;;2.33;66.69
40872;BME280;26591;43.264;26.940;2023-02-16T03:50:36;100309.03;;;2.32;66.65
40872;BME280;26591;43.264;26.940;2023-02-16T03:53:02;100308.63;;;2.40;65.73
40872;BME280;26591;43.264;26.940;2023-02-16T03:55:32;100315.78;;;2.36;66.32
40872;BME280;26591;43.264;26.940;2023-02-16T03:57:58;100309.00;;;2.16;65.86
40872;BME280;26591;43.264;26.940;2023-02-16T04:00:24;100311.06;;;2.27;66.31
40872;BME280;26591;43.264;26.940;2023-02-16T04:02:49;100308.03;;;2.35;66.56
40872;BME280;26591;43.264;26.940;2023-02-16T04:05:15;100312.41;;;2.34;66.58
40872;BME280;26591;43.264;26.940;2023-02-16T04:07:40;100313.69;;;2.27;66.34
40872;BME280;26591;43.264;26.940;2023-02-16T04:10:06;100313.63;;;2.11;66.22
40872;BME280;26591;43.264;26.940;2023-02-16T04:12:31;100308.94;;;2.00;66.48
40872;BME280;26591;43.264;26.940;2023-02-16T04:15:12;100307.53;;;1.77;67.22
40872;BME280;26591;43.264;26.940;2023-02-16T04:17:38;100312.06;;;1.73;67.13
40872;BME280;26591;43.264;26.940;2023-02-16T04:20:05;100311.09;;;1.76;67.13
40872;BME280;26591;43.264;26.940;2023-02-16T04:22:31;100311.47;;;1.68;66.72
40872;BME280;26591;43.264;26.940;2023-02-16T04:24:57;100312.53;;;1.64;67.77
40872;BME280;26591;43.264;26.940;2023-02-16T04:27:22;100310.69;;;1.66;68.08
40872;BME280;26591;43.264;26.940;2023-02-16T04:29:48;100309.53;;;1.54;68.26
40872;BME280;26591;43.264;26.940;2023-02-16T04:32:13;100318.75;;;1.44;68.68
40872;BME280;26591;43.264;26.940;2023-02-16T04:34:39;100316.50;;;1.18;68.77
40872;BME280;26591;43.264;26.940;2023-02-16T04:37:04;100316.97;;;1.27;69.43
40872;BME280;26591;43.264;26.940;2023-02-16T04:39:30;100310.06;;;1.43;68.11
40872;BME280;26591;43.264;26.940;2023-02-16T04:41:56;100307.69;;;1.56;68.28
40872;BME280;26591;43.264;26.940;2023-02-16T04:44:21;100314.38;;;1.62;68.00
40872;BME280;26591;43.264;26.940;2023-02-16T04:46:47;100311.47;;;1.68;67.53
40872;BME280;26591;43.264;26.940;2023-02-16T04:49:13;100315.44;;;1.75;68.32
40872;BME280;26591;43.264;26.940;2023-02-16T04:51:38;100316.59;;;1.70;67.88
40872;BME280;26591;43.264;26.940;2023-02-16T04:54:05;100319.16;;;1.54;67.92
40872;BME280;26591;43.264;26.940;2023-02-16T04:56:30;100321.56;;;1.57;67.60
40872;BME280;26591;43.264;26.940;2023-02-16T04:58:56;100321.13;;;1.66;68.54
40872;BME280;26591;43.264;26.940;2023-02-16T05:01:31;100325.06;;;1.75;67.70
40872;BME280;26591;43.264;26.940;2023-02-16T05:03:56;100324.72;;;1.81;68.05
40872;BME280;26591;43.264;26.940;2023-02-16T05:06:22;100329.78;;;1.84;67.80
40872;BME280;26591;43.264;26.940;2023-02-16T05:08:47;100324.28;;;1.90;67.20
40872;BME280;26591;43.264;26.940;2023-02-16T05:11:14;100326.88;;;1.90;67.67
40872;BME280;26591;43.264;26.940;2023-02-16T05:13:58;100332.25;;;1.87;67.41
40872;BME280;26591;43.264;26.940;2023-02-16T05:16:43;100340.06;;;2.05;67.22
40872;BME280;26591;43.264;26.940;2023-02-16T05:19:09;100338.44;;;2.36;67.31
40872;BME280;26591;43.264;26.940;2023-02-16T05:21:35;100346.25;;;2.69;67.22
40872;BME280;26591;43.264;26.940;2023-02-16T05:24:08;100352.16;;;2.89;67.24
40872;BME280;26591;43.264;26.940;2023-02-16T05:26:35;100352.66;;;3.12;66.95
40872;BME280;26591;43.264;26.940;2023-02-16T05:29:02;100360.38;;;3.45;66.33
40872;BME280;26591;43.264;26.940;2023-02-16T05:31:28;100362.28;;;3.58;66.88
40872;BME280;26591;43.264;26.940;2023-02-16T05:33:54;100359.78;;;3.56;67.28
40872;BME280;26591;43.264;26.940;2023-02-16T05:36:20;100367.03;;;3.51;68.44
40872;BME280;26591;43.264;26.940;2023-02-16T05:38:46;100364.91;;;3.58;67.61
40872;BME280;26591;43.264;26.940;2023-02-16T05:41:12;100376.19;;;3.74;67.71
40872;BME280;26591;43.264;26.940;2023-02-16T05:43:52;100371.13;;;4.02;66.13
40872;BME280;26591;43.264;26.940;2023-02-16T05:46:19;100372.88;;;4.16;64.36
40872;BME280;26591;43.264;26.940;2023-02-16T05:48:45;100374.78;;;4.42;63.60
40872;BME280;26591;43.264;26.940;2023-02-16T05:51:10;100373.66;;;4.61;62.79
40872;BME280;26591;43.264;26.940;2023-02-16T05:53:36;100374.72;;;4.86;61.88
40872;BME280;26591;43.264;26.940;2023-02-16T05:56:01;100374.16;;;5.10;60.89
40872;BME280;26591;43.264;26.940;2023-02-16T05:58:27;100371.00;;;5.45;60.00
40872;BME280;26591;43.264;26.940;2023-02-16T06:00:52;100377.59;;;5.65;58.89
40872;BME280;26591;43.264;26.940;2023-02-16T06:03:18;100371.06;;;6.11;57.91
40872;BME280;26591;43.264;26.940;2023-02-16T06:05:43;100370.66;;;6.43;57.81
40872;BME280;26591;43.264;26.940;2023-02-16T06:08:09;100380.06;;;6.71;56.20
40872;BME280;26591;43.264;26.940;2023-02-16T06:13:57;100379.19;;;7.45;54.93
40872;BME280;26591;43.264;26.940;2023-02-16T06:16:28;100384.16;;;7.61;54.68
40872;BME280;26591;43.264;26.940;2023-02-16T06:18:54;100384.56;;;7.79;53.49
40872;BME280;26591;43.264;26.940;2023-02-16T06:21:20;100392.00;;;8.10;52.77
40872;BME280;26591;43.264;26.940;2023-02-16T06:23:46;100388.78;;;8.40;51.72
40872;BME280;26591;43.264;26.940;2023-02-16T06:26:12;100381.00;;;8.62;51.64
40872;BME280;26591;43.264;26.940;2023-02-16T06:28:38;100386.78;;;8.78;51.15
40872;BME280;26591;43.264;26.940;2023-02-16T06:31:03;100386.25;;;9.07;51.22
40872;BME280;26591;43.264;26.940;2023-02-16T06:33:29;100386.84;;;9.22;49.83
40872;BME280;26591;43.264;26.940;2023-02-16T06:35:54;100398.31;;;9.65;49.42
40872;BME280;26591;43.264;26.940;2023-02-16T06:38:20;100389.59;;;9.86;48.18
40872;BME280;26591;43.264;26.940;2023-02-16T06:40:45;100389.56;;;10.28;47.82
40872;BME280;26591;43.264;26.940;2023-02-16T06:43:11;100383.13;;;10.42;46.92
40872;BME280;26591;43.264;26.940;2023-02-16T06:45:36;100387.09;;;10.58;46.96
40872;BME280;26591;43.264;26.940;2023-02-16T06:48:02;100386.44;;;10.65;46.38
40872;BME280;26591;43.264;26.940;2023-02-16T06:50:27;100391.97;;;10.93;46.91
40872;BME280;26591;43.264;26.940;2023-02-16T06:52:53;100389.31;;;10.93;46.90
40872;BME280;26591;43.264;26.940;2023-02-16T06:55:19;100386.56;;;11.14;46.71
40872;BME280;26591;43.264;26.940;2023-02-16T06:57:44;100381.69;;;11.20;45.89
40872;BME280;26591;43.264;26.940;2023-02-16T07:00:10;100388.81;;;11.19;46.26
40872;BME280;26591;43.264;26.940;2023-02-16T07:02:36;100388.41;;;11.34;45.94
40872;BME280;26591;43.264;26.940;2023-02-16T07:05:02;100384.34;;;11.29;46.05
40872;BME280;26591;43.264;26.940;2023-02-16T07:07:28;100375.31;;;11.32;45.79
40872;BME280;26591;43.264;26.940;2023-02-16T07:09:53;100380.31;;;11.35;45.63
40872;BME280;26591;43.264;26.940;2023-02-16T07:12:19;100379.59;;;11.33;45.88
40872;BME280;26591;43.264;26.940;2023-02-16T07:14:44;100393.97;;;11.21;45.98
40872;BME280;26591;43.264;26.940;2023-02-16T07:17:09;100381.56;;;11.21;46.15
40872;BME280;26591;43.264;26.940;2023-02-16T07:19:35;100370.13;;;11.21;46.23
40872;BME280;26591;43.264;26.940;2023-02-16T07:22:01;100373.72;;;11.20;46.04
40872;BME280;26591;43.264;26.940;2023-02-16T07:24:27;100379.88;;;11.20;45.88
40872;BME280;26591;43.264;26.940;2023-02-16T07:26:53;100377.38;;;11.09;45.63
40872;BME280;26591;43.264;26.940;2023-02-16T07:29:19;100369.59;;;10.76;46.25
40872;BME280;26591;43.264;26.940;2023-02-16T07:31:44;100371.16;;;10.79;45.86
40872;BME280;26591;43.264;26.940;2023-02-16T07:34:10;100367.69;;;10.47;46.80
40872;BME280;26591;43.264;26.940;2023-02-16T07:36:35;100374.50;;;10.91;46.72
40872;BME280;26591;43.264;26.940;2023-02-16T07:39:01;100366.19;;;11.15;45.60
40872;BME280;26591;43.264;26.940;2023-02-16T07:41:26;100363.25;;;11.08;45.86
40872;BME280;26591;43.264;26.940;2023-02-16T07:43:52;100363.53;;;10.95;46.38
40872;BME280;26591;43.264;26.940;2023-02-16T07:46:17;100358.56;;;11.32;46.90
40872;BME280;26591;43.264;26.940;2023-02-16T07:48:49;100358.97;;;11.56;46.07
40872;BME280;26591;43.264;26.940;2023-02-16T07:51:25;100355.38;;;11.38;45.17
40872;BME280;26591;43.264;26.940;2023-02-16T07:53:51;100356.75;;;11.52;45.08
40872;BME280;26591;43.264;26.940;2023-02-16T07:56:22;100365.38;;;11.34;45.14
40872;BME280;26591;43.264;26.940;2023-02-16T07:58:53;100356.19;;;11.38;46.09
40872;BME280;26591;43.264;26.940;2023-02-16T08:01:20;100352.97;;;11.54;45.63
40872;BME280;26591;43.264;26.940;2023-02-16T08:03:46;100349.50;;;11.54;45.43
40872;BME280;26591;43.264;26.940;2023-02-16T08:06:11;100357.72;;;11.60;45.32
40872;BME280;26591;43.264;26.940;2023-02-16T08:08:39;100359.66;;;11.88;45.41
40872;BME280;26591;43.264;26.940;2023-02-16T08:11:13;100361.59;;;11.96;44.52
40872;BME280;26591;43.264;26.940;2023-02-16T08:13:39;100351.56;;;11.80;44.90
40872;BME280;26591;43.264;26.940;2023-02-16T08:16:15;100348.50;;;11.55;45.99
40872;BME280;26591;43.264;26.940;2023-02-16T08:18:41;100354.78;;;11.54;45.88
40872;BME280;26591;43.264;26.940;2023-02-16T08:21:12;100351.47;;;11.32;46.02
40872;BME280;26591;43.264;26.940;2023-02-16T08:23:46;100349.03;;;11.09;45.77
40872;BME280;26591;43.264;26.940;2023-02-16T08:26:16;100346.66;;;10.96;46.85
40872;BME280;26591;43.264;26.940;2023-02-16T08:28:43;100350.84;;;10.99;46.40
40872;BME280;26591;43.264;26.940;2023-02-16T08:31:16;100344.69;;;10.17;48.08
40872;BME280;26591;43.264;26.940;2023-02-16T08:33:44;100356.19;;;10.68;47.32
40872;BME280;26591;43.264;26.940;2023-02-16T08:36:25;100345.59;;;11.38;45.90
40872;BME280;26591;43.264;26.940;2023-02-16T08:38:52;100349.91;;;11.69;46.14
40872;BME280;26591;43.264;26.940;2023-02-16T08:41:20;100349.91;;;11.49;45.98
40872;BME280;26591;43.264;26.940;2023-02-16T08:43:47;100352.97;;;11.64;45.44
40872;BME280;26591;43.264;26.940;2023-02-16T08:46:13;100351.16;;;11.65;45.31
40872;BME280;26591;43.264;26.940;2023-02-16T08:48:39;100345.59;;;11.58;44.79
40872;BME280;26591;43.264;26.940;2023-02-16T08:51:05;100347.53;;;11.66;45.14
40872;BME280;26591;43.264;26.940;2023-02-16T08:53:34;100350.00;;;11.97;45.22
40872;BME280;26591;43.264;26.940;2023-02-16T08:56:02;100355.28;;;12.16;44.49
40872;BME280;26591;43.264;26.940;2023-02-16T08:58:29;100353.94;;;11.73;45.07
40872;BME280;26591;43.264;26.940;2023-02-16T09:00:55;100353.91;;;11.93;44.50
40872;BME280;26591;43.264;26.940;2023-02-16T09:03:55;100355.44;;;11.95;44.36
40872;BME280;26591;43.264;26.940;2023-02-16T09:06:21;100352.97;;;11.74;45.00
40872;BME280;26591;43.264;26.940;2023-02-16T09:08:51;100351.28;;;11.73;44.80
40872;BME280;26591;43.264;26.940;2023-02-16T09:11:17;100348.19;;;11.87;44.62
40872;BME280;26591;43.264;26.940;2023-02-16T09:13:43;100347.50;;;11.85;44.84
40872;BME280;26591;43.264;26.940;2023-02-16T09:16:17;100345.53;;;11.97;45.09
40872;BME280;26591;43.264;26.940;2023-02-16T09:18:44;100345.81;;;11.94;45.47
40872;BME280;26591;43.264;26.940;2023-02-16T09:21:15;100345.28;;;12.00;44.45
40872;BME280;26591;43.264;26.940;2023-02-16T09:23:43;100344.41;;;12.10;44.51
40872;BME280;26591;43.264;26.940;2023-02-16T09:26:12;100340.81;;;11.91;44.33
40872;BME280;26591;43.264;26.940;2023-02-16T09:28:42;100344.41;;;12.10;44.12
40872;BME280;26591;43.264;26.940;2023-02-16T09:31:14;100343.63;;;12.37;44.63
40872;BME280;26591;43.264;26.940;2023-02-16T09:33:48;100332.28;;;12.45;43.77
40872;BME280;26591;43.264;26.940;2023-02-16T09:36:13;100338.56;;;12.44;43.57
40872;BME280;26591;43.264;26.940;2023-02-16T09:38:39;100324.47;;;12.05;44.58
40872;BME280;26591;43.264;26.940;2023-02-16T09:43:49;100326.38;;;12.79;43.08
40872;BME280;26591;43.264;26.940;2023-02-16T09:46:19;100323.28;;;12.84;42.71
40872;BME280;26591;43.264;26.940;2023-02-16T09:48:49;100316.34;;;12.45;43.81
40872;BME280;26591;43.264;26.940;2023-02-16T09:51:36;100322.81;;;12.88;47.62
40872;BME280;26591;43.264;26.940;2023-02-16T09:56:53;100309.84;;;12.57;43.17
40872;BME280;26591;43.264;26.940;2023-02-16T09:59:42;100308.59;;;12.61;43.54
40872;BME280;26591;43.264;26.940;2023-02-16T10:02:37;100308.88;;;12.58;43.53
40872;BME280;26591;43.264;26.940;2023-02-16T10:05:16;100305.28;;;12.95;43.34
40872;BME280;26591;43.264;26.940;2023-02-16T10:07:56;100300.78;;;12.50;43.61
40872;BME280;26591;43.264;26.940;2023-02-16T10:13:05;100302.38;;;12.71;43.09
40872;BME280;26591;43.264;26.940;2023-02-16T10:15:35;100296.38;;;12.87;43.24
40872;BME280;26591;43.264;26.940;2023-02-16T10:26:03;100290.94;;;13.24;43.52
40872;BME280;26591;43.264;26.940;2023-02-16T10:28:45;100279.91;;;12.37;44.46
40872;BME280;26591;43.264;26.940;2023-02-16T10:33:52;100283.25;;;13.57;42.57
40872;BME280;26591;43.264;26.940;2023-02-16T10:36:28;100281.53;;;12.48;44.13
40872;BME280;26591;43.264;26.940;2023-02-16T10:41:48;100271.41;;;12.79;44.12
40872;BME280;26591;43.264;26.940;2023-02-16T10:44:26;100281.03;;;13.45;49.10
40872;BME280;26591;43.264;26.940;2023-02-16T10:46:59;100268.19;;;13.04;47.59
40872;BME280;26591;43.264;26.940;2023-02-16T10:49:28;100262.00;;;12.67;44.72
40872;BME280;26591;43.264;26.940;2023-02-16T10:51:55;100262.81;;;12.67;44.05
40872;BME280;26591;43.264;26.940;2023-02-16T10:54:25;100262.22;;;13.10;43.51
40872;BME280;26591;43.264;26.940;2023-02-16T10:56:57;100254.72;;;13.41;43.38
40872;BME280;26591;43.264;26.940;2023-02-16T10:59:39;100254.13;;;13.11;43.41
40872;BME280;26591;43.264;26.940;2023-02-16T11:02:26;100243.72;;;14.24;45.68
40872;BME280;26591;43.264;26.940;2023-02-16T11:04:55;100240.81;;;13.74;43.08
40872;BME280;26591;43.264;26.940;2023-02-16T11:07:23;100239.03;;;13.38;43.25
40872;BME280;26591;43.264;26.940;2023-02-16T11:09:52;100238.16;;;13.74;42.92
40872;BME280;26591;43.264;26.940;2023-02-16T11:12:34;100230.94;;;13.93;42.31
40872;BME280;26591;43.264;26.940;2023-02-16T11:17:27;100224.63;;;13.94;41.74
40872;BME280;26591;43.264;26.940;2023-02-16T11:20:02;100225.00;;;13.46;42.86
40872;BME280;26591;43.264;26.940;2023-02-16T11:22:38;100222.16;;;12.85;43.14
40872;BME280;26591;43.264;26.940;2023-02-16T11:30:18;100204.38;;;12.31;44.36
40872;BME280;26591;43.264;26.940;2023-02-16T11:32:49;100208.69;;;11.57;45.61
40872;BME280;26591;43.264;26.940;2023-02-16T11:35:16;100196.00;;;12.26;44.61
40872;BME280;26591;43.264;26.940;2023-02-16T11:37:42;100200.59;;;12.52;44.46
40872;BME280;26591;43.264;26.940;2023-02-16T11:40:23;100198.31;;;12.57;43.64
40872;BME280;26591;43.264;26.940;2023-02-16T11:42:52;100190.06;;;12.60;42.93
40872;BME280;26591;43.264;26.940;2023-02-16T11:47:52;100186.50;;;12.70;41.13
40872;BME280;26591;43.264;26.940;2023-02-16T11:50:29;100176.44;;;13.00;41.09
40872;BME280;26591;43.264;26.940;2023-02-16T11:53:19;100169.75;;;13.13;40.59
40872;BME280;26591;43.264;26.940;2023-02-16T11:55:48;100162.09;;;13.37;36.63
40872;BME280;26591;43.264;26.940;2023-02-16T11:58:20;100159.53;;;13.80;35.58
40872;BME280;26591;43.264;26.940;2023-02-16T12:08:42;100136.97;;;13.05;33.09
40872;BME280;26591;43.264;26.940;2023-02-16T12:11:39;100133.06;;;12.73;33.22
40872;BME280;26591;43.264;26.940;2023-02-16T12:14:36;100135.97;;;13.32;32.32
40872;BME280;26591;43.264;26.940;2023-02-16T12:22:45;100126.25;;;12.96;34.29
40872;BME280;26591;43.264;26.940;2023-02-16T12:46:03;100076.47;;;13.33;33.07
40872;BME280;26591;43.264;26.940;2023-02-16T12:57:33;100076.72;;;13.40;33.25
40872;BME280;26591;43.264;26.940;2023-02-16T13:00:24;100081.78;;;13.51;33.01
40872;BME280;26591;43.264;26.940;2023-02-16T13:05:56;100077.47;;;13.58;32.70
40872;BME280;26591;43.264;26.940;2023-02-16T13:18:47;100066.41;;;13.80;33.82
40872;BME280;26591;43.264;26.940;2023-02-16T13:23:59;100059.09;;;13.82;33.45
40872;BME280;26591;43.264;26.940;2023-02-16T13:36:59;100051.38;;;13.54;33.01
40872;BME280;26591;43.264;26.940;2023-02-16T13:42:04;100032.75;;;13.19;33.21
40872;BME280;26591;43.264;26.940;2023-02-16T13:44:49;100043.38;;;13.19;33.44
40872;BME280;26591;43.264;26.940;2023-02-16T13:47:25;100046.25;;;13.69;33.75
40872;BME280;26591;43.264;26.940;2023-02-16T13:49:57;100033.03;;;14.02;33.02
40872;BME280;26591;43.264;26.940;2023-02-16T13:52:35;100037.69;;;14.16;32.58
40872;BME280;26591;43.264;26.940;2023-02-16T13:55:20;100045.03;;;14.23;31.74
40872;BME280;26591;43.264;26.940;2023-02-16T14:00:36;100039.06;;;14.70;32.01
40872;BME280;26591;43.264;26.940;2023-02-16T14:03:03;100031.22;;;14.77;31.18
40872;BME280;26591;43.264;26.940;2023-02-16T14:05:32;100025.75;;;14.70;30.89
40872;BME280;26591;43.264;26.940;2023-02-16T14:08:14;100027.06;;;14.49;30.90
40872;BME280;26591;43.264;26.940;2023-02-16T14:21:04;100012.91;;;14.41;32.37
40872;BME280;26591;43.264;26.940;2023-02-16T14:23:32;100012.56;;;14.11;32.30
40872;BME280;26591;43.264;26.940;2023-02-16T14:31:19;100012.00;;;13.66;33.45
40872;BME280;26591;43.264;26.940;2023-02-16T14:34:01;100010.00;;;13.68;32.71
40872;BME280;26591;43.264;26.940;2023-02-16T14:36:28;100006.88;;;13.72;33.33
40872;BME280;26591;43.264;26.940;2023-02-16T14:38:55;99999.06;;;13.79;33.55
40872;BME280;26591;43.264;26.940;2023-02-16T14:41:34;100008.50;;;13.57;34.29
40872;BME280;26591;43.264;26.940;2023-02-16T15:03:21;99995.94;;;12.72;36.74
40872;BME280;26591;43.264;26.940;2023-02-16T15:05:54;100004.50;;;12.84;37.06
40872;BME280;26591;43.264;26.940;2023-02-16T15:08:25;100008.66;;;12.86;36.11
40872;BME280;26591;43.264;26.940;2023-02-16T15:11:01;99999.16;;;12.84;36.70
40872;BME280;26591;43.264;26.940;2023-02-16T15:13:37;99993.97;;;12.74;36.31
40872;BME280;26591;43.264;26.940;2023-02-16T15:16:03;100005.66;;;12.63;36.18
40872;BME280;26591;43.264;26.940;2023-02-16T15:18:52;100001.88;;;12.65;42.70
40872;BME280;26591;43.264;26.940;2023-02-16T15:21:22;99996.56;;;12.65;38.03
40872;BME280;26591;43.264;26.940;2023-02-16T15:23:55;100003.28;;;12.78;41.19
40872;BME280;26591;43.264;26.940;2023-02-16T15:26:31;100009.63;;;12.85;37.65
40872;BME280;26591;43.264;26.940;2023-02-16T15:29:22;99998.97;;;12.77;36.79
40872;BME280;26591;43.264;26.940;2023-02-16T15:31:48;100001.31;;;12.54;36.77
40872;BME280;26591;43.264;26.940;2023-02-16T15:34:28;100000.16;;;12.56;39.14
40872;BME280;26591;43.264;26.940;2023-02-16T15:36:54;99998.97;;;12.50;37.77
40872;BME280;26591;43.264;26.940;2023-02-16T15:47:37;100000.03;;;12.40;39.65
40872;BME280;26591;43.264;26.940;2023-02-16T15:50:12;99999.66;;;11.80;44.45
40872;BME280;26591;43.264;26.940;2023-02-16T15:52:39;99998.97;;;11.60;48.64
40872;BME280;26591;43.264;26.940;2023-02-16T15:55:06;99991.75;;;11.52;41.90
40872;BME280;26591;43.264;26.940;2023-02-16T15:57:35;99990.31;;;11.76;45.47
40872;BME280;26591;43.264;26.940;2023-02-16T16:00:16;99983.34;;;11.93;43.51
40872;BME280;26591;43.264;26.940;2023-02-16T16:02:46;99981.31;;;11.69;45.84
40872;BME280;26591;43.264;26.940;2023-02-16T16:05:32;99979.06;;;11.46;44.28
40872;BME280;26591;43.264;26.940;2023-02-16T16:08:01;99973.09;;;11.62;42.25
40872;BME280;26591;43.264;26.940;2023-02-16T16:10:37;99971.13;;;11.46;43.60
40872;BME280;26591;43.264;26.940;2023-02-16T16:13:17;99975.28;;;11.49;49.26
40872;BME280;26591;43.264;26.940;2023-02-16T16:15:45;99975.63;;;11.64;45.19
40872;BME280;26591;43.264;26.940;2023-02-16T16:21:17;99970.81;;;10.56;46.38
40872;BME280;26591;43.264;26.940;2023-02-16T16:23:58;99981.06;;;10.68;44.60
40872;BME280;26591;43.264;26.940;2023-02-16T16:26:26;99979.00;;;10.72;48.45
40872;BME280;26591;43.264;26.940;2023-02-16T16:28:53;99969.25;;;10.63;44.21
40872;BME280;26591;43.264;26.940;2023-02-16T16:36:35;99969.44;;;10.22;50.84
40872;BME280;26591;43.264;26.940;2023-02-16T16:41:34;99966.25;;;9.79;42.16
40872;BME280;26591;43.264;26.940;2023-02-16T16:44:00;99970.13;;;9.65;42.58
40872;BME280;26591;43.264;26.940;2023-02-16T16:46:27;99973.03;;;10.31;44.62
40872;BME280;26591;43.264;26.940;2023-02-16T16:49:00;99969.03;;;10.07;41.41
40872;BME280;26591;43.264;26.940;2023-02-16T16:51:35;99967.09;;;9.99;42.77
40872;BME280;26591;43.264;26.940;2023-02-16T16:54:05;99970.13;;;9.75;41.91
40872;BME280;26591;43.264;26.940;2023-02-16T16:56:37;99964.84;;;9.65;42.32
40872;BME280;26591;43.264;26.940;2023-02-16T16:59:03;99965.13;;;9.91;52.65
40872;BME280;26591;43.264;26.940;2023-02-16T17:01:29;99960.69;;;10.41;45.39
40872;BME280;26591;43.264;26.940;2023-02-16T17:03:55;99958.28;;;10.18;41.22
40872;BME280;26591;43.264;26.940;2023-02-16T17:06:21;99956.50;;;9.80;41.43
40872;BME280;26591;43.264;26.940;2023-02-16T17:08:48;99957.31;;;9.60;41.70
40872;BME280;26591;43.264;26.940;2023-02-16T17:11:27;99963.44;;;9.51;41.86
40872;BME280;26591;43.264;26.940;2023-02-16T17:13:56;99955.03;;;9.26;42.19
40872;BME280;26591;43.264;26.940;2023-02-16T17:16:27;99958.25;;;9.30;42.24
40872;BME280;26591;43.264;26.940;2023-02-16T17:24:18;99942.84;;;8.94;42.39
40872;BME280;26591;43.264;26.940;2023-02-16T17:26:44;99943.25;;;8.99;42.81
40872;BME280;26591;43.264;26.940;2023-02-16T17:29:10;99946.16;;;8.87;42.47
40872;BME280;26591;43.264;26.940;2023-02-16T17:31:35;99941.22;;;8.72;43.31
40872;BME280;26591;43.264;26.940;2023-02-16T17:34:01;99939.31;;;8.84;42.68
40872;BME280;26591;43.264;26.940;2023-02-16T17:36:30;99933.78;;;8.87;42.50
40872;BME280;26591;43.264;26.940;2023-02-16T17:41:31;99936.50;;;9.07;46.87